Date,TemperatureHighF,TemperatureAvgF,TemperatureLowF,DewpointHighF,DewpointAvgF,DewpointLowF,HumidityHigh,HumidityAvg,HumidityLow,PressureMaxIn,PressureMinIn,WindSpeedMaxMPH,WindSpeedAvgMPH,GustSpeedMaxMPH,PrecipitationSumIn
2013-1-1,50.3,47.6,44.3,49.0,45.8,40.0,97,93,80,30.08,29.93,5,0,14,1.43
2013-1-2,42.9,39.6,37.3,41.0,37.1,35.0,95,90,86,30.18,30.02,8,1,14,0.00
2013-1-3,43.5,36.1,27.3,35.0,31.8,26.0,94,85,59,30.37,30.16,5,1,9,0.00
2013-1-4,47.9,33.4,24.2,32.0,26.0,22.0,95,78,37,30.44,30.34,7,1,11,0.00
2013-1-5,48.2,36.2,25.5,39.0,30.5,24.0,95,82,48,30.41,30.27,2,0,3,0.09
2013-1-6,47.9,40.0,31.6,40.0,37.5,30.0,96,90,71,30.29,30.18,5,0,10,0.05
2013-1-7,50.7,36.8,27.9,39.0,32.3,26.0,96,85,57,30.39,30.27,1,0,6,0.00
2013-1-8,56.8,45.1,33.4,47.0,39.5,31.0,94,81,64,30.35,30.24,2,0,7,0.00
2013-1-9,56.9,52.6,48.1,54.0,49.7,44.0,95,90,82,30.38,30.27,0,0,4,0.06
2013-1-10,64.7,58.9,55.7,62.0,56.5,52.0,96,92,87,30.33,30.04,7,0,13,0.05
2013-1-11,64.8,63.4,61.6,64.0,61.6,60.0,97,94,86,30.11,30.03,3,0,13,0.22
2013-1-12,71.4,65.4,60.6,66.0,62.5,58.0,98,91,78,30.07,29.94,3,0,6,0.03
2013-1-13,70.0,63.1,50.6,64.0,60.4,49.0,96,91,79,30.03,29.89,8,1,10,1.06
2013-1-14,50.0,43.2,39.5,49.0,42.0,38.0,97,95,94,30.19,30.02,6,1,14,1.37
2013-1-15,46.9,44.5,41.8,46.0,43.7,41.0,97,97,96,30.10,29.91,3,0,6,0.90
2013-1-16,48.4,44.6,42.2,48.0,43.6,41.0,97,96,94,30.03,29.90,6,0,9,0.19
2013-1-17,44.5,39.8,33.3,44.0,38.0,31.0,97,93,83,30.34,29.80,10,2,22,0.47
2013-1-18,51.7,36.2,28.4,39.0,31.5,27.0,97,85,48,30.55,30.34,7,0,8,0.01
2013-1-19,54.5,35.6,25.9,38.0,30.4,24.0,97,84,46,30.42,30.21,4,0,7,0.00
2013-1-20,60.3,40.0,27.5,43.0,34.1,26.0,97,82,46,30.23,30.11,4,0,6,0.00
2013-1-21,49.6,37.3,28.5,39.0,27.9,21.0,96,72,42,30.22,30.09,9,1,15,0.00
2013-1-22,42.7,32.6,25.2,25.0,21.0,17.0,83,64,39,30.36,30.21,6,1,12,0.00
2013-1-23,56.2,42.1,28.7,39.0,31.4,23.0,88,67,47,30.38,30.17,4,0,10,0.00
2013-1-24,50.4,44.5,35.2,43.0,30.1,17.0,88,60,29,30.32,30.16,8,1,15,0.00
2013-1-25,48.3,41.1,36.4,39.0,31.7,17.0,95,71,46,30.28,30.07,2,0,7,0.04
2013-1-26,55.8,43.3,37.5,41.0,36.0,30.0,96,78,37,30.29,30.15,5,0,10,0.01
2013-1-27,51.5,45.6,38.7,43.0,38.0,34.0,89,75,68,30.36,30.27,3,0,7,0.00
2013-1-28,62.3,50.2,42.6,54.0,44.1,36.0,94,80,70,30.33,30.18,1,0,6,0.00
2013-1-29,68.1,56.7,42.2,63.0,53.7,41.0,96,90,80,30.18,29.79,4,0,11,0.00
2013-1-30,67.9,55.6,36.9,65.0,52.9,28.0,96,90,69,29.90,29.55,10,2,18,1.96
2013-1-31,49.8,38.2,30.1,31.0,28.5,26.0,88,70,42,30.15,29.91,7,1,14,0.00
2013-2-1,40.4,32.7,23.7,33.0,20.0,8.0,86,62,29,30.41,30.12,6,1,21,0.00
2013-2-2,41.6,31.3,20.4,38.0,27.1,18.0,96,85,51,30.34,30.12,1,0,6,0.28
2013-2-3,55.4,42.2,31.7,41.0,32.9,26.0,97,74,33,30.16,30.02,13,1,17,0.00
2013-2-4,48.2,37.7,28.4,38.0,32.3,26.0,93,82,59,30.11,29.96,3,0,6,0.00
2013-2-5,57.1,46.4,38.7,50.0,43.1,36.0,94,88,77,30.02,29.93,2,0,4,0.01
2013-2-6,65.4,47.0,37.8,48.0,39.4,34.0,97,79,35,30.16,30.02,4,0,7,0.00
2013-2-7,47.9,46.3,42.0,46.0,44.5,39.0,96,93,77,30.09,29.90,1,0,6,0.37
2013-2-8,52.1,45.4,31.0,49.0,42.3,29.0,97,89,72,30.21,29.90,11,1,17,0.27
2013-2-9,58.5,41.0,27.6,43.0,34.2,26.0,96,79,45,30.29,30.16,1,0,7,0.00
2013-2-10,56.1,50.3,44.3,52.0,44.4,35.0,96,81,53,30.18,29.95,3,0,9,1.26
2013-2-11,56.1,52.0,45.4,55.0,51.0,44.0,97,96,95,30.11,29.95,1,0,4,0.14
2013-2-12,48.1,43.9,39.7,44.0,41.7,38.0,97,92,73,30.11,29.76,4,0,7,0.21
2013-2-13,47.4,43.7,35.7,46.0,41.2,34.0,97,91,80,29.99,29.67,6,1,15,0.07
2013-2-14,56.8,43.6,33.1,41.0,36.7,31.0,95,78,49,30.08,29.98,6,0,9,0.00
2013-2-15,62.0,44.0,29.1,44.0,35.4,28.0,97,75,44,30.10,29.98,6,1,15,0.00
2013-2-16,42.5,35.6,25.7,33.0,23.1,15.0,84,62,37,30.18,30.00,14,2,20,0.00
2013-2-17,49.0,32.4,18.8,26.0,19.8,15.0,92,65,31,30.30,30.18,6,0,14,0.00
2013-2-18,61.2,43.7,24.6,36.0,29.8,23.0,95,62,36,30.30,29.94,6,1,14,0.00
2013-2-19,55.8,46.2,35.5,46.0,33.3,20.0,96,65,29,30.19,29.93,11,2,17,0.36
2013-2-20,46.3,35.5,24.7,34.0,24.8,15.0,93,69,29,30.23,30.11,7,1,11,0.01
2013-2-21,57.0,43.3,30.2,46.0,33.0,24.0,95,71,34,30.16,29.84,2,0,7,1.09
2013-2-22,47.9,45.6,43.2,46.0,44.3,42.0,96,95,92,30.05,29.93,1,0,6,0.39
2013-2-23,59.2,47.1,36.5,52.0,44.7,35.0,97,91,75,29.95,29.82,3,0,7,0.45
2013-2-24,61.5,43.4,31.6,42.0,35.5,31.0,97,78,38,30.03,29.91,4,0,8,0.00
2013-2-25,59.4,47.4,36.8,44.0,38.2,31.0,94,72,54,29.93,29.58,3,0,9,0.57
2013-2-26,49.8,44.5,41.3,47.0,40.3,35.0,96,85,72,29.78,29.48,10,1,16,0.59
2013-2-27,58.6,47.7,40.2,38.0,35.2,32.0,81,64,43,29.88,29.78,14,1,16,0.00
2013-2-28,42.8,38.5,33.5,34.0,29.9,27.0,91,72,58,30.01,29.85,6,2,19,0.00
2013-3-1,41.2,37.5,34.3,32.0,30.2,27.0,85,75,68,30.03,29.96,5,1,11,0.00
2013-3-2,36.5,34.7,32.0,31.0,29.1,27.0,87,80,71,30.08,29.98,10,1,15,0.00
2013-3-3,42.6,33.2,26.0,26.0,22.5,18.0,85,67,38,30.12,30.05,9,2,16,0.00
2013-3-4,58.0,42.6,25.2,42.0,29.4,21.0,90,63,34,30.16,29.91,5,0,9,0.00
2013-3-5,62.7,50.9,36.0,58.0,45.1,31.0,92,80,67,29.97,29.64,9,2,20,0.21
2013-3-6,42.6,36.8,29.5,31.0,26.8,21.0,87,68,59,30.22,29.95,19,3,26,0.00
2013-3-7,54.7,37.9,25.4,35.0,29.8,23.0,94,75,44,30.30,30.20,7,0,10,0.00
2013-3-8,63.6,42.2,26.6,37.0,30.0,24.0,94,68,26,30.33,30.19,7,0,8,0.00
2013-3-9,64.1,49.6,34.0,42.0,35.4,30.0,87,61,36,30.24,30.06,2,0,7,0.00
2013-3-10,74.7,61.3,48.2,49.0,41.8,36.0,66,51,34,30.09,29.90,10,1,19,0.00
2013-3-11,60.8,53.0,40.2,54.0,47.5,37.0,94,82,63,29.90,29.74,7,1,11,0.94
2013-3-12,56.2,43.5,31.3,37.0,33.9,30.0,95,71,44,30.11,29.88,14,1,14,0.00
2013-3-13,52.2,43.3,30.8,33.0,27.3,22.0,93,57,33,30.31,30.10,15,2,18,0.00
2013-3-14,55.8,40.4,28.9,32.0,22.8,17.0,79,54,22,30.38,30.21,10,1,10,0.00
2013-3-15,76.5,51.7,29.2,47.0,37.7,27.0,93,64,33,30.22,29.92,7,1,17,0.00
2013-3-16,77.1,61.2,46.7,49.0,45.1,41.0,87,59,30,29.95,29.82,7,1,14,0.00
2013-3-17,70.4,58.4,44.7,56.0,50.1,43.0,96,76,49,29.94,29.81,7,0,10,0.00
2013-3-18,67.9,58.0,50.0,63.0,55.4,49.0,97,91,81,29.84,29.67,19,1,42,0.63
2013-3-19,62.3,50.9,37.3,52.0,37.9,30.0,96,65,33,30.07,29.83,7,1,13,0.00
2013-3-20,58.2,47.1,36.8,33.0,27.4,16.0,77,50,24,30.11,29.91,9,1,20,0.00
2013-3-21,48.1,38.5,29.7,30.0,21.1,11.0,83,53,26,30.02,29.89,7,1,14,0.00
2013-3-22,47.9,41.5,34.6,41.0,33.5,27.0,93,74,55,30.02,29.92,2,0,5,0.07
2013-3-23,55.0,48.1,43.3,50.0,45.9,42.0,96,92,83,29.93,29.64,3,0,9,1.28
2013-3-24,61.1,51.4,40.2,56.0,46.3,29.0,97,84,62,29.74,29.43,13,2,22,0.92
2013-3-25,41.1,37.6,32.8,30.0,26.1,24.0,78,64,51,30.09,29.74,9,2,20,0.00
2013-3-26,41.1,36.5,32.6,29.0,27.6,26.0,81,71,59,30.30,30.08,6,1,17,0.00
2013-3-27,54.2,39.1,24.9,32.0,27.9,23.0,94,68,38,30.36,30.23,8,1,12,0.00
2013-3-28,62.3,44.6,29.3,37.0,31.1,27.0,94,65,30,30.33,30.20,7,1,11,0.00
2013-3-29,70.5,51.1,31.4,45.0,36.5,30.0,94,63,29,30.27,30.10,5,0,10,0.00
2013-3-30,71.0,55.8,45.4,56.0,47.9,40.0,96,77,47,30.12,29.93,2,0,9,0.34
2013-3-31,70.1,60.5,54.8,59.0,56.2,54.0,97,87,63,29.92,29.79,7,1,11,0.45
2013-4-1,71.3,59.5,49.7,57.0,49.4,43.0,96,73,38,30.00,29.80,5,1,13,0.00
2013-4-2,61.5,51.3,40.3,46.0,37.0,31.0,93,62,35,30.14,30.00,6,1,10,0.00
2013-4-3,54.6,46.2,39.9,46.0,36.9,27.0,95,72,45,30.13,30.05,3,0,8,0.25
2013-4-4,45.6,43.5,41.4,44.0,42.3,40.0,96,95,94,30.07,29.91,6,0,7,0.95
2013-4-5,65.7,51.6,41.4,49.0,42.7,38.0,97,75,37,30.05,29.93,7,1,15,0.01
2013-4-6,74.8,56.4,34.9,46.0,41.2,34.0,97,63,30,30.12,29.98,4,0,10,0.00
2013-4-7,76.4,59.7,41.6,53.0,48.3,40.0,95,70,41,30.10,29.95,4,0,11,0.00
2013-4-8,79.3,61.1,47.4,59.0,52.9,46.0,96,77,44,30.04,29.94,4,0,10,0.00
2013-4-9,84.1,66.7,52.1,60.0,56.6,50.0,96,73,43,30.10,29.93,4,0,9,0.00
2013-4-10,84.5,67.4,51.7,63.0,57.2,50.0,97,73,43,30.00,29.80,3,0,9,0.00
2013-4-11,77.9,66.5,59.6,68.0,61.6,57.0,96,85,67,29.81,29.49,5,0,11,1.86
2013-4-12,66.6,55.4,44.5,60.0,45.8,40.0,95,73,38,29.91,29.60,9,1,17,0.00
2013-4-13,74.2,56.0,39.7,50.0,42.8,38.0,97,67,28,30.02,29.91,7,1,11,0.00
2013-4-14,57.8,52.6,44.2,55.0,49.1,42.0,95,88,71,29.96,29.79,2,0,6,0.06
2013-4-15,75.7,63.9,55.7,63.0,58.3,54.0,96,83,62,30.01,29.84,3,0,7,0.00
2013-4-16,82.9,69.7,59.7,68.0,63.5,58.0,94,82,59,30.11,30.01,1,0,8,0.00
2013-4-17,85.8,71.6,61.7,70.0,64.8,60.0,97,81,55,30.10,29.95,3,0,10,0.00
2013-4-18,82.3,70.6,59.8,65.0,61.3,58.0,96,74,49,29.95,29.69,4,0,11,0.00
2013-4-19,73.3,54.3,42.3,66.0,48.7,37.0,95,82,62,30.06,29.62,7,1,13,0.97
2013-4-20,62.3,47.6,32.8,40.0,35.6,31.0,96,68,34,30.20,30.07,5,1,12,0.00
2013-4-21,69.5,52.4,34.4,48.0,41.1,33.0,96,69,37,30.26,30.13,2,0,8,0.00
2013-4-22,71.4,58.3,48.3,54.0,47.3,43.0,91,69,46,30.21,30.04,4,0,10,0.00
2013-4-23,74.9,60.8,50.6,56.0,49.3,42.0,92,68,45,30.12,29.95,4,0,7,0.00
2013-4-24,67.4,57.4,48.7,63.0,54.6,46.0,95,90,77,30.15,29.95,10,0,11,0.28
2013-4-25,65.8,51.5,38.5,45.0,40.6,36.0,95,70,33,30.28,30.15,7,1,14,0.00
2013-4-26,75.7,55.9,35.9,57.0,43.8,34.0,96,69,32,30.31,30.15,3,0,9,0.00
2013-4-27,76.4,63.7,56.2,63.0,56.5,49.0,95,78,55,30.21,29.97,6,0,9,0.70
2013-4-28,66.7,60.4,57.6,66.0,59.5,57.0,97,96,92,29.99,29.86,10,0,10,0.51
2013-4-29,74.2,62.2,53.9,60.0,56.4,52.0,98,84,49,29.96,29.84,2,0,6,0.07
2013-4-30,78.7,62.8,47.0,63.0,55.4,46.0,97,80,45,29.96,29.86,2,0,7,0.59
2013-5-1,71.1,64.9,60.6,62.0,59.5,56.0,93,83,70,30.05,29.95,2,0,9,0.00
2013-5-2,66.9,62.3,56.9,61.0,57.8,54.0,90,85,81,30.07,29.98,3,0,7,0.00
2013-5-3,70.1,62.6,58.7,59.0,57.7,56.0,95,84,67,29.98,29.79,4,0,10,0.33
2013-5-4,58.7,49.0,44.7,57.0,47.6,42.0,96,94,91,29.88,29.76,4,0,14,2.45
2013-5-5,62.6,50.1,43.6,53.0,47.6,42.0,96,91,59,29.81,29.71,2,0,6,0.51
2013-5-6,52.5,49.6,46.3,52.0,48.5,45.0,97,96,94,29.84,29.71,0,0,4,2.08
2013-5-7,68.2,55.6,46.4,56.0,50.7,45.0,97,85,60,29.93,29.82,3,0,6,0.00
2013-5-8,77.1,61.2,46.7,62.0,54.7,45.0,97,81,52,30.00,29.91,5,0,8,0.00
2013-5-9,80.2,64.8,50.4,64.0,57.1,49.0,97,79,51,30.04,29.93,1,0,4,0.00
2013-5-10,73.2,63.9,55.0,63.0,58.9,53.0,96,84,61,29.98,29.85,2,0,5,0.00
2013-5-11,76.7,64.9,56.2,66.0,61.3,54.0,96,88,65,29.91,29.81,2,0,10,0.08
2013-5-12,65.9,56.4,43.5,54.0,44.4,36.0,96,69,34,30.06,29.90,9,1,14,0.01
2013-5-13,69.4,53.4,37.0,48.0,40.6,35.0,96,67,34,30.20,30.05,7,0,15,0.00
2013-5-14,80.9,61.7,42.9,60.0,51.6,41.0,96,73,42,30.16,30.00,1,0,6,0.00
2013-5-15,83.8,68.5,53.1,63.0,57.9,51.0,96,72,44,30.09,29.91,6,0,10,0.00
2013-5-16,81.1,68.0,58.3,65.0,59.6,52.0,95,77,40,29.97,29.87,1,0,4,0.00
2013-5-17,78.4,67.3,60.9,68.0,63.6,58.0,96,88,65,29.97,29.88,1,0,10,0.98
2013-5-18,75.3,69.1,65.1,72.0,67.7,64.0,97,95,88,29.96,29.88,2,0,7,0.45
2013-5-19,77.3,70.1,63.5,73.0,67.7,62.0,97,92,80,29.96,29.88,4,0,8,0.01
2013-5-20,80.1,69.2,59.3,71.0,65.1,58.0,97,87,68,30.00,29.89,2,0,6,0.00
2013-5-21,86.1,72.3,59.7,72.0,66.3,58.0,97,83,58,29.93,29.75,0,0,7,0.00
2013-5-22,82.6,72.0,64.5,71.0,66.9,63.0,96,85,63,29.84,29.74,4,0,5,0.08
2013-5-23,82.9,71.2,59.9,69.0,61.7,57.0,97,75,45,29.94,29.81,8,1,13,0.00
2013-5-24,73.9,64.1,51.7,59.0,53.5,48.0,93,71,42,30.15,29.93,8,1,15,0.00
2013-5-25,76.4,60.8,46.3,61.0,50.5,44.0,95,72,40,30.22,30.09,3,0,5,0.00
2013-5-26,82.5,64.9,48.5,63.0,54.9,47.0,96,74,38,30.17,30.04,2,0,5,0.00
2013-5-27,84.1,68.6,53.7,67.0,60.0,52.0,95,77,47,30.10,29.97,3,0,8,0.00
2013-5-28,84.0,70.8,57.3,67.0,62.3,56.0,96,77,50,30.06,29.95,4,0,6,0.00
2013-5-29,84.6,73.5,63.0,71.0,64.9,60.0,92,76,53,30.06,29.95,4,0,11,0.00
2013-5-30,82.6,73.3,66.5,72.0,67.6,63.0,91,82,67,30.07,29.95,6,0,8,0.00
2013-5-31,85.4,74.9,67.5,71.0,67.8,65.0,92,80,59,30.03,29.90,2,0,7,0.00
2013-6-1,85.0,73.7,66.4,75.0,69.3,64.0,95,86,67,29.94,29.84,1,0,10,0.22
2013-6-2,83.3,74.0,66.8,72.0,68.5,65.0,97,84,61,29.88,29.76,3,0,7,0.00
2013-6-3,81.3,71.7,63.5,70.0,65.6,61.0,96,82,59,29.87,29.77,5,0,11,0.01
2013-6-4,85.8,71.5,58.2,71.0,64.3,57.0,96,80,54,29.91,29.82,3,0,6,0.00
2013-6-5,80.1,69.4,64.6,74.0,67.4,63.0,96,93,81,29.88,29.75,3,0,5,1.31
2013-6-6,79.7,71.5,64.2,73.0,68.6,63.0,97,90,72,29.78,29.62,0,0,5,0.00
2013-6-7,80.2,69.5,65.3,72.0,67.5,64.0,97,93,70,29.77,29.59,3,0,10,0.79
2013-6-8,80.4,70.6,62.9,71.0,66.6,62.0,97,88,65,29.94,29.76,2,0,4,0.00
2013-6-9,80.9,71.9,66.0,74.0,69.3,65.0,97,92,72,29.95,29.82,2,0,6,0.10
2013-6-10,84.1,74.0,67.1,73.0,69.0,66.0,97,86,59,29.89,29.80,1,0,6,1.15
2013-6-11,89.4,78.6,70.0,77.0,73.3,68.0,96,84,63,29.93,29.84,5,0,8,0.00
2013-6-12,90.7,79.5,69.4,77.0,73.1,68.0,97,82,58,29.95,29.85,3,0,8,0.00
2013-6-13,88.7,77.6,69.6,78.0,73.0,68.0,97,86,68,29.85,29.65,4,0,10,0.14
2013-6-14,82.3,71.6,62.5,69.0,64.3,60.0,97,80,50,29.89,29.76,5,0,12,0.00
2013-6-15,84.6,71.0,58.4,71.0,64.5,57.0,97,81,58,29.99,29.89,1,0,6,0.00
2013-6-16,87.0,73.3,61.5,76.0,68.5,60.0,96,86,64,30.00,29.86,4,0,9,0.06
2013-6-17,84.2,73.0,69.0,78.0,70.8,68.0,96,93,78,29.91,29.81,1,0,13,0.14
2013-6-18,82.2,73.2,68.5,75.0,70.8,67.0,97,92,73,29.82,29.74,4,0,13,1.24
2013-6-19,83.2,73.3,66.6,73.0,68.9,66.0,97,87,65,29.94,29.82,7,0,10,0.01
2013-6-20,83.8,73.4,64.0,73.0,68.4,63.0,97,85,66,30.06,29.95,3,0,5,0.00
2013-6-21,84.4,73.3,64.0,72.0,67.8,63.0,97,84,58,30.11,30.00,4,0,7,0.00
2013-6-22,83.9,73.0,64.5,70.0,66.4,63.0,97,81,56,30.09,29.95,2,0,6,0.00
2013-6-23,85.0,73.0,62.3,73.0,67.9,61.0,97,85,63,30.06,29.95,3,0,9,0.00
2013-6-24,82.2,73.1,67.0,75.0,70.3,66.0,96,90,78,30.08,29.97,0,0,5,0.00
2013-6-25,83.9,74.3,68.7,76.0,71.9,67.0,96,92,76,30.03,29.90,0,0,5,0.08
2013-6-26,87.8,77.0,66.8,78.0,72.5,66.0,97,87,68,29.96,29.80,1,0,3,0.00
2013-6-27,90.2,78.0,70.8,80.0,73.1,68.0,95,85,63,29.84,29.69,4,0,7,0.01
2013-6-28,87.1,77.9,68.6,77.0,71.5,67.0,97,82,58,29.73,29.57,5,0,11,0.00
2013-6-29,86.9,76.6,68.1,72.0,67.5,62.0,96,76,44,29.60,29.54,4,0,9,0.00
2013-6-30,86.7,73.9,62.1,68.0,64.6,60.0,96,75,43,29.66,29.58,3,0,7,0.00
2013-7-1,82.7,72.0,63.1,72.0,67.3,61.0,95,86,67,29.78,29.64,3,0,7,0.01
2013-7-2,84.2,72.1,62.5,73.0,67.0,61.0,96,85,58,29.82,29.61,1,0,8,0.01
2013-7-3,75.1,71.0,67.5,73.0,69.5,66.0,96,95,91,29.74,29.66,4,0,6,0.29
2013-7-4,75.2,71.0,68.8,72.0,69.3,68.0,97,94,83,29.73,29.65,1,0,10,0.18
2013-7-5,73.5,71.1,68.5,72.0,70.0,67.0,97,96,95,29.78,29.69,0,0,4,0.40
2013-7-6,72.7,70.6,69.7,72.0,69.7,69.0,97,97,96,29.75,29.68,1,0,5,1.59
2013-7-7,80.6,73.6,69.9,76.0,71.7,69.0,98,94,81,29.77,29.70,0,0,6,0.04
2013-7-8,82.6,73.8,69.6,77.0,71.9,69.0,97,94,77,29.80,29.70,1,0,3,0.53
2013-7-9,86.6,76.5,70.9,78.0,73.6,70.0,97,91,70,29.79,29.65,1,0,5,0.05
2013-7-10,84.9,75.4,69.2,78.0,73.2,68.0,97,93,79,29.69,29.54,2,0,11,0.17
2013-7-11,84.0,75.0,69.3,77.0,72.3,68.0,97,92,77,29.62,29.46,1,0,5,0.51
2013-7-12,84.8,75.7,68.7,75.0,71.1,67.0,97,86,67,29.54,29.46,4,0,8,0.00
2013-7-13,81.6,72.7,62.9,75.0,69.2,62.0,97,89,76,29.63,29.52,2,0,9,0.00
2013-7-14,83.0,75.1,70.3,76.0,71.9,69.0,96,90,74,29.73,29.61,2,0,10,0.06
2013-7-15,84.1,76.8,72.5,75.0,72.3,71.0,95,86,71,29.83,29.73,3,0,7,0.00
2013-7-16,85.7,76.8,70.6,76.0,72.6,69.0,96,87,69,29.87,29.79,3,0,6,0.00
2013-7-17,91.0,76.7,67.4,79.0,71.6,66.0,97,85,58,29.87,29.71,5,0,7,0.00
2013-7-18,86.8,76.8,68.4,76.0,71.4,67.0,96,84,62,29.77,29.62,2,0,5,0.00
2013-7-19,88.6,77.0,67.4,77.0,71.8,66.0,97,85,61,29.69,29.53,0,0,3,0.00
2013-7-20,86.1,74.4,67.7,77.0,71.6,66.0,97,91,70,29.60,29.49,1,0,4,0.25
2013-7-21,85.0,73.5,69.2,77.0,71.4,68.0,97,93,76,29.60,29.51,0,0,13,0.30
2013-7-22,82.2,74.0,68.3,76.0,71.4,67.0,97,92,79,29.57,29.45,1,0,4,0.00
2013-7-23,72.0,70.6,68.2,71.0,69.5,67.0,97,96,93,29.59,29.44,1,0,4,1.67
2013-7-24,80.2,73.2,68.7,77.0,71.5,68.0,97,94,83,29.50,29.41,3,0,6,0.03
2013-7-25,83.5,74.2,67.8,71.0,68.6,66.0,97,84,57,29.58,29.44,4,0,8,0.00
2013-7-26,85.7,73.1,62.9,74.0,68.3,62.0,97,85,60,29.62,29.54,0,0,0,0.00
2013-7-27,82.2,72.7,66.1,73.0,68.8,65.0,96,88,67,29.54,29.47,1,0,2,0.00
2013-7-28,82.6,74.3,67.0,74.0,69.9,66.0,96,86,69,29.62,29.49,0,0,0,0.00
2013-7-29,80.4,69.9,63.6,69.0,65.1,62.0,96,85,61,29.74,29.61,0,0,0,0.00
2013-7-30,86.4,71.9,59.1,75.0,66.6,58.0,97,85,56,29.77,29.65,0,0,0,0.38
2013-7-31,79.0,73.0,69.0,76.0,71.3,68.0,97,94,88,29.70,29.51,4,0,9,0.99
2013-8-1,83.8,75.0,69.1,76.0,71.4,68.0,97,89,66,29.55,29.47,4,0,8,0.00
2013-8-2,85.6,73.8,64.8,75.0,69.1,63.0,97,86,56,29.56,29.49,3,0,4,0.00
2013-8-3,84.7,72.9,63.1,77.0,70.4,62.0,97,92,76,29.59,29.53,0,0,11,0.18
2013-8-4,84.6,76.4,68.7,76.0,72.6,67.0,97,88,69,29.59,29.51,3,0,10,0.04
2013-8-5,81.1,71.5,66.4,72.0,68.0,65.0,96,89,69,29.59,29.50,0,0,1,0.00
2013-8-6,78.2,72.5,68.2,76.0,71.1,67.0,97,95,92,29.55,29.47,0,0,0,0.16
2013-8-7,86.3,75.4,70.1,79.0,72.9,69.0,97,92,76,29.55,29.46,0,0,17,0.14
2013-8-8,84.2,75.0,68.5,80.0,72.8,67.0,97,93,82,29.55,29.48,0,0,0,0.00
2013-8-9,86.7,76.8,68.8,79.0,73.7,68.0,97,90,73,29.59,29.50,1,0,5,0.00
2013-8-10,84.2,74.5,70.6,78.0,72.8,70.0,97,94,77,29.64,29.56,1,0,13,0.21
2013-8-11,86.2,74.8,68.0,79.0,73.0,67.0,98,94,74,29.67,29.57,1,0,6,0.05
2013-8-12,86.9,76.7,69.9,78.0,73.6,69.0,97,91,67,29.62,29.50,1,0,7,0.28
2013-8-13,84.8,75.9,71.1,78.0,73.3,70.0,97,92,74,29.50,29.40,2,0,7,0.02
2013-8-14,77.8,72.2,64.9,72.0,69.2,64.0,97,90,67,29.52,29.43,3,0,9,0.00
2013-8-15,74.2,68.4,63.1,69.0,65.4,62.0,96,90,83,29.57,29.49,1,0,5,0.00
2013-8-16,69.1,66.5,64.5,66.0,63.6,61.0,94,90,86,29.61,29.53,3,0,7,0.00
2013-8-17,68.4,66.2,64.5,65.0,64.1,62.0,96,92,88,29.63,29.56,1,0,6,0.00
2013-8-18,72.7,69.2,65.9,71.0,68.0,65.0,97,96,93,29.67,29.58,0,0,5,0.34
2013-8-19,80.5,73.3,68.5,76.0,71.3,68.0,97,93,83,29.62,29.52,1,0,6,0.30
2013-8-20,79.2,74.0,70.2,76.0,72.4,69.0,97,95,87,29.65,29.56,1,0,6,0.02
2013-8-21,83.4,75.4,70.3,77.0,72.5,69.0,97,91,74,29.69,29.59,2,0,6,0.00
2013-8-22,85.0,75.0,67.4,77.0,72.3,66.0,97,91,72,29.67,29.54,1,0,5,0.00
2013-8-23,85.6,74.9,67.4,78.0,71.6,66.0,97,89,71,29.59,29.48,3,0,6,0.05
2013-8-24,81.9,74.0,67.2,77.0,71.4,66.0,98,92,80,29.72,29.54,2,0,6,0.01
2013-8-25,81.6,71.7,64.5,72.0,67.4,63.0,97,87,68,29.83,29.72,5,0,7,0.00
2013-8-26,79.8,68.4,58.5,69.0,63.5,57.0,97,86,60,29.81,29.66,3,0,7,0.00
2013-8-27,82.6,69.9,58.4,74.0,65.8,57.0,97,87,62,29.68,29.55,3,0,7,0.00
2013-8-28,85.1,72.1,63.3,75.0,68.5,62.0,97,89,64,29.58,29.50,3,0,6,0.00
2013-8-29,87.9,76.1,65.6,77.0,70.7,64.0,97,84,60,29.55,29.45,5,0,9,0.00
2013-8-30,86.8,74.6,68.8,79.0,72.4,68.0,97,93,75,29.51,29.42,1,0,7,0.54
2013-8-31,87.0,75.4,69.0,80.0,72.9,68.0,98,92,72,29.46,29.36,2,0,6,0.00
2013-9-1,82.1,74.1,68.9,77.0,72.3,68.0,97,94,85,29.43,29.35,0,0,8,0.00
2013-9-2,82.0,73.5,68.4,76.0,71.4,68.0,97,93,77,29.50,29.36,2,0,10,2.45
2013-9-3,84.4,75.1,66.8,76.0,70.9,65.0,97,87,65,29.49,29.39,5,0,7,0.00
2013-9-4,83.2,70.9,61.4,73.0,66.6,60.0,97,87,60,29.60,29.48,4,0,8,0.00
2013-9-5,82.6,70.6,61.2,73.0,66.6,60.0,97,88,61,29.64,29.56,3,0,4,0.00
2013-9-6,83.8,70.9,60.8,75.0,67.3,59.0,97,88,68,29.64,29.53,1,0,4,0.00
2013-9-7,83.8,71.9,62.9,74.0,68.1,62.0,97,88,70,29.61,29.49,1,0,4,0.00
2013-9-8,84.7,72.5,61.9,76.0,69.0,61.0,97,89,67,29.52,29.44,0,0,3,0.00
2013-9-9,86.3,74.9,66.2,77.0,71.2,65.0,97,88,68,29.57,29.48,1,0,5,0.00
2013-9-10,86.6,75.2,68.1,76.0,71.6,67.0,97,89,66,29.68,29.58,5,0,5,0.00
2013-9-11,85.0,73.3,64.4,75.0,68.8,63.0,97,87,62,29.70,29.58,1,0,7,0.00
2013-9-12,86.2,73.2,63.4,74.0,68.1,62.0,97,85,58,29.58,29.41,5,0,12,0.30
2013-9-13,80.7,70.6,59.2,72.0,64.4,56.0,97,82,49,29.44,29.35,5,0,11,0.00
2013-9-14,74.6,62.3,51.0,65.0,57.1,49.0,96,84,60,29.54,29.44,4,0,9,0.00
2013-9-15,80.8,66.5,54.1,71.0,62.5,53.0,97,87,63,29.62,29.55,1,0,6,0.00
2013-9-16,81.7,68.3,58.0,70.0,62.1,57.0,97,83,46,29.63,29.55,4,0,6,0.00
2013-9-17,80.1,69.2,59.6,72.0,65.2,58.0,97,87,73,29.66,29.57,4,0,9,0.00
2013-9-18,78.7,69.6,62.8,70.0,64.8,60.0,92,85,68,29.68,29.57,3,0,7,0.00
2013-9-19,80.6,69.0,59.7,70.0,64.2,58.0,97,85,63,29.65,29.52,1,0,5,0.00
2013-9-20,82.6,70.1,59.1,72.0,65.3,58.0,97,86,62,29.55,29.35,1,0,5,0.01
2013-9-21,73.0,68.3,60.2,72.0,66.9,59.0,97,95,91,29.34,29.23,4,0,25,1.22
2013-9-22,73.5,62.5,52.9,67.0,59.5,52.0,97,90,72,29.38,29.28,5,0,7,0.01
2013-9-23,77.4,64.0,51.9,68.0,59.8,51.0,97,87,61,29.46,29.37,4,0,6,0.00
2013-9-24,69.0,65.7,61.3,67.0,64.3,60.0,96,95,91,29.46,29.33,2,0,10,0.10
2013-9-25,70.7,66.5,63.6,69.0,65.3,62.0,97,95,91,29.35,29.28,0,0,3,0.01
2013-9-26,75.7,67.3,60.0,69.0,64.1,59.0,96,90,74,29.48,29.34,1,0,6,0.00
2013-9-27,76.2,64.1,55.9,65.0,59.4,55.0,97,86,58,29.61,29.48,5,0,7,0.00
2013-9-28,74.6,62.4,52.5,64.0,57.6,51.0,97,85,59,29.68,29.56,2,0,8,0.00
2013-9-29,72.9,61.7,52.1,64.0,57.5,51.0,96,87,63,29.61,29.48,2,0,7,0.00
2013-9-30,73.0,62.7,55.1,65.0,59.1,54.0,96,88,70,29.55,29.45,1,0,5,0.00
2013-10-1,78.2,65.5,56.2,69.0,62.1,55.0,97,89,71,29.61,29.50,2,0,7,0.00
2013-10-2,79.6,67.0,56.9,70.0,63.3,56.0,97,88,65,29.62,29.51,1,0,6,0.00
2013-10-3,80.4,69.3,61.8,69.0,64.7,60.0,97,86,57,29.58,29.49,4,0,5,0.00
2013-10-4,82.4,68.9,59.3,72.0,65.2,58.0,97,88,65,29.60,29.51,2,0,5,0.00
2013-10-5,82.7,69.7,60.2,72.0,65.7,59.0,97,87,65,29.57,29.43,1,0,6,0.00
2013-10-6,79.8,69.2,57.8,73.0,66.5,56.0,96,91,75,29.43,29.28,6,0,11,0.45
2013-10-7,68.8,59.5,52.8,57.0,53.6,50.0,96,82,55,29.48,29.34,6,1,13,0.02
2013-10-8,72.9,60.7,47.4,66.0,56.2,46.0,96,85,67,29.56,29.45,3,0,8,0.00
2013-10-9,71.6,63.6,57.5,63.0,57.0,52.0,94,80,60,29.64,29.54,2,0,7,0.00
2013-10-10,76.5,62.6,53.5,67.0,58.5,52.0,97,87,59,29.60,29.47,2,0,5,0.00
2013-10-11,76.8,62.0,51.4,65.0,56.7,50.0,97,84,54,29.54,29.44,5,0,8,0.00
2013-10-12,77.8,62.2,50.0,64.0,56.7,49.0,97,84,53,29.56,29.47,6,0,9,0.00
2013-10-13,78.2,63.6,53.8,66.0,58.6,52.0,97,85,51,29.65,29.56,3,0,8,0.00
2013-10-14,75.7,63.0,52.4,66.0,59.0,51.0,97,87,67,29.66,29.54,4,0,6,0.00
2013-10-15,68.7,62.3,55.6,63.0,59.4,54.0,97,90,80,29.58,29.47,1,0,3,0.00
2013-10-16,71.4,63.7,57.2,66.0,61.1,56.0,96,91,80,29.50,29.38,1,0,6,0.00
2013-10-17,69.2,64.6,54.1,67.0,62.4,52.0,97,92,82,29.43,29.34,4,0,10,0.12
2013-10-18,66.7,54.8,46.8,57.0,50.8,45.0,96,87,61,29.52,29.39,5,0,7,0.00
2013-10-19,68.3,57.1,49.3,60.0,53.5,47.0,96,88,67,29.46,29.37,3,0,8,0.00
2013-10-20,64.3,48.9,39.0,50.0,42.7,37.0,96,82,39,29.54,29.45,2,0,6,0.00
2013-10-21,66.2,49.4,34.4,55.0,44.5,33.0,97,85,51,29.56,29.45,1,0,5,0.00
2013-10-22,71.8,57.7,50.1,57.0,52.2,48.0,96,84,50,29.46,29.30,4,0,10,0.00
2013-10-23,58.2,50.0,37.3,50.0,42.5,35.0,95,77,48,29.54,29.31,11,1,15,0.00
2013-10-24,60.0,46.5,33.1,48.0,40.0,31.0,95,80,53,29.70,29.54,6,0,10,0.00
2013-10-25,53.2,41.6,30.7,39.0,31.7,28.0,91,71,39,29.87,29.70,10,1,11,0.00
2013-10-26,60.1,41.7,26.6,43.0,34.0,25.0,95,77,42,29.77,29.60,5,0,7,0.00
2013-10-27,63.5,51.3,39.4,55.0,47.0,37.0,95,86,68,29.59,29.52,3,0,4,0.02
2013-10-28,63.3,56.0,51.1,60.0,54.6,50.0,97,95,87,29.67,29.55,1,0,3,0.08
2013-10-29,72.4,59.8,52.2,65.0,56.9,51.0,97,91,73,29.71,29.61,2,0,4,0.00
2013-10-30,74.9,62.0,52.9,63.0,57.4,52.0,97,86,60,29.69,29.52,5,0,9,0.00
2013-10-31,73.5,65.8,58.1,67.0,62.0,56.0,95,87,78,29.52,29.16,5,0,13,0.09
2013-11-1,71.7,61.6,47.5,66.0,56.3,46.0,96,84,48,29.26,29.13,4,0,10,0.61
2013-11-2,65.3,52.6,41.8,53.0,43.5,37.0,97,74,37,29.51,29.25,7,1,14,0.00
2013-11-3,60.9,46.6,35.6,47.0,40.0,34.0,96,80,45,29.69,29.51,5,0,10,0.00
2013-11-4,65.4,49.9,35.8,47.0,41.1,34.0,96,75,41,29.79,29.69,3,0,12,0.00
2013-11-5,62.4,52.5,45.4,49.0,42.6,39.0,80,70,53,29.82,29.67,2,0,8,0.00
2013-11-6,71.1,61.3,49.4,61.0,55.7,44.0,92,82,69,29.66,29.45,7,0,9,0.01
2013-11-7,61.8,51.2,37.7,60.0,44.7,33.0,96,79,50,29.68,29.43,12,1,18,0.38
2013-11-8,58.3,42.3,30.6,40.0,33.7,28.0,95,75,33,29.77,29.64,3,0,7,0.00
2013-11-9,57.1,45.1,32.9,47.0,39.3,31.0,95,82,53,29.73,29.60,0,0,5,0.00
2013-11-10,69.2,52.4,39.5,49.0,44.0,37.0,92,76,40,29.70,29.60,6,0,10,0.00
2013-11-11,65.1,45.8,31.5,42.0,36.6,30.0,96,74,33,29.70,29.55,2,0,4,0.00
2013-11-12,53.9,40.5,30.1,45.0,31.5,17.0,95,72,50,29.90,29.55,20,2,20,0.00
2013-11-13,49.1,32.7,21.6,25.0,20.4,13.0,87,65,25,30.02,29.86,6,0,10,0.00
2013-11-14,55.5,34.8,19.8,31.0,24.3,17.0,93,71,29,29.89,29.66,1,0,7,0.00
2013-11-15,54.8,45.3,31.6,50.0,41.4,27.0,96,87,67,29.66,29.49,1,0,3,0.14
2013-11-16,64.1,56.3,48.2,60.0,53.9,47.0,97,91,83,29.57,29.44,3,0,8,0.00
2013-11-17,68.3,64.6,58.4,68.0,63.0,56.0,97,94,89,29.44,29.25,8,0,11,0.15
2013-11-18,68.3,57.5,46.3,68.0,46.8,32.0,97,71,29,29.51,29.28,8,1,14,0.01
2013-11-19,55.7,45.1,35.3,38.0,32.9,27.0,86,65,34,29.59,29.48,4,0,12,0.00
2013-11-20,59.1,47.7,33.4,42.0,36.7,31.0,91,68,48,29.67,29.54,6,0,10,0.00
2013-11-21,64.3,56.3,51.2,55.0,47.9,40.0,82,74,64,29.56,29.56,2,0,5,0.00
2013-11-22,63.5,57.9,53.4,59.0,54.5,49.0,96,88,80,29.58,29.56,2,0,11,0.04
2013-11-23,55.6,47.9,35.8,54.0,41.4,23.0,94,79,55,29.57,29.57,10,2,15,0.00
2013-11-24,43.3,33.1,27.3,25.0,17.6,11.0,75,55,29,29.57,29.57,8,1,14,0.00
2013-11-25,42.4,35.7,27.4,35.0,24.7,17.0,94,66,41,29.57,29.57,2,0,8,0.82
2013-11-26,46.1,40.3,35.2,45.0,39.0,34.0,96,95,91,29.57,29.15,7,1,17,2.59
2013-11-27,37.5,33.1,23.7,35.0,24.8,18.0,92,72,56,29.79,29.22,12,2,23,0.01
2013-11-28,45.2,29.0,18.2,29.0,20.7,15.0,90,74,38,29.92,29.79,3,0,5,0.00
2013-11-29,55.2,33.9,20.1,34.0,25.4,18.0,94,76,27,30.00,29.88,3,0,5,0.00
2013-11-30,54.0,37.8,26.5,38.0,30.8,25.0,95,78,44,29.96,29.75,3,0,7,0.00
2013-12-1,54.0,41.5,28.9,43.0,36.1,27.0,94,82,59,29.74,29.65,2,0,6,0.00
2013-12-2,52.6,48.5,44.6,51.0,47.2,42.0,97,95,89,29.65,29.24,1,0,3,0.43
2013-12-3,58.1,53.7,49.3,56.0,52.7,48.0,97,96,93,29.24,29.24,4,0,4,0.04
2013-12-4,71.1,62.7,56.8,65.0,60.7,56.0,98,93,79,29.24,29.24,4,0,11,0.00
2013-12-5,71.6,67.0,64.5,69.0,66.0,63.0,97,96,89,29.24,29.24,4,0,7,0.15
2013-12-6,72.5,57.9,40.4,69.0,56.2,39.0,98,94,85,29.54,29.24,7,1,16,0.59
2013-12-7,40.5,39.1,36.5,38.0,36.1,34.0,92,89,84,29.62,29.55,9,2,19,0.00
2013-12-8,49.3,45.4,39.1,49.0,44.5,37.0,97,96,92,29.62,29.46,1,0,5,2.06
2013-12-9,52.2,48.4,45.4,50.0,47.2,44.0,97,95,90,29.52,29.36,2,0,7,0.27
2013-12-10,46.1,36.7,27.8,45.0,33.9,26.0,97,89,71,29.74,29.37,8,1,16,0.26
2013-12-11,51.2,34.4,23.8,39.0,29.5,22.0,96,84,46,29.84,29.73,2,0,6,0.00
2013-12-12,42.7,32.4,25.9,30.0,23.8,16.0,90,73,35,29.95,29.82,6,1,13,0.00
2013-12-13,48.6,35.8,22.3,36.0,28.0,20.0,94,76,45,29.82,29.54,1,0,5,0.00
2013-12-14,54.1,48.1,39.8,53.0,45.9,36.0,97,92,72,29.54,29.37,9,0,17,0.50
2013-12-15,40.7,36.4,32.3,38.0,32.3,29.0,90,85,78,29.58,29.37,8,2,14,0.00
2013-12-16,54.6,37.4,30.2,38.0,31.8,28.0,94,82,45,29.58,29.58,5,0,7,0.00
2013-12-17,60.1,42.7,27.5,43.0,35.3,26.0,97,78,47,29.58,29.49,5,1,13,0.00
2013-12-18,52.9,36.6,26.7,35.0,28.2,23.0,95,75,32,29.49,29.49,5,0,7,0.00
2013-12-19,58.2,38.8,25.7,37.0,31.4,24.0,95,78,37,29.49,29.49,3,0,5,0.00
2013-12-20,66.1,52.9,36.0,58.0,46.9,34.0,92,81,61,29.49,29.41,5,0,6,0.00
2013-12-21,71.0,64.4,56.5,67.0,62.1,55.0,97,92,85,29.41,29.16,5,0,17,0.13
2013-12-22,68.7,56.6,53.4,66.0,55.4,53.0,97,96,86,29.42,29.14,9,0,18,2.31
2013-12-23,53.3,42.4,30.9,53.0,39.1,28.0,97,88,77,29.66,29.37,8,2,15,0.07
2013-12-24,36.9,30.2,23.1,28.0,24.3,21.0,91,80,55,29.89,29.66,8,1,16,0.00
2013-12-25,46.1,31.0,19.6,34.0,25.4,18.0,95,82,53,29.89,29.89,1,0,7,0.00
2013-12-26,51.2,34.6,25.2,36.0,29.2,24.0,96,82,49,29.89,29.89,6,0,8,0.00
2013-12-27,50.8,34.5,24.3,35.0,29.0,23.0,96,82,46,29.89,29.89,2,0,7,0.00
2013-12-28,40.8,37.9,31.6,39.0,35.9,30.0,96,92,75,29.89,29.89,3,0,9,1.27
2013-12-29,48.6,41.8,35.5,45.0,40.3,34.0,97,94,86,29.89,29.89,3,0,6,0.12
2013-12-30,46.1,40.6,35.6,41.0,37.8,35.0,97,90,81,29.89,29.89,4,0,7,0.01
2013-12-31,43.9,36.0,30.0,35.0,31.0,28.0,94,83,59,29.89,29.69,4,0,11,0.00
2014-1-1,49.9,38.4,28.0,41.0,34.0,27.0,95,85,64,29.69,29.69,3,0,6,0.00
2014-1-2,49.4,38.6,24.2,49.0,34.7,14.0,97,86,64,29.69,29.69,20,2,24,0.36